Time;durP1;ratioP1;P1;durP2;ratioP2;P2;SDS_P1;SDS_P2;PMS_P1;PMS_P2;Temp;Humidity;BMP_temperature;BMP_pressure;BME280_temperature;BME280_humidity;BME280_pressure;Samples;Min_cycle;Max_cycle;Signal;HPM_P1;HPM_P2
2022/04/18 00:02:18;;;;;;;0.50;0.50;;;2.90;99.90;;;;;;5245148;28;20033;-77
2022/04/18 00:04:49;;;;;;;0.40;0.40;;;2.90;99.90;;;;;;5233430;28;20051;-78
2022/04/18 00:07:23;;;;;;;1.08;1.05;;;2.80;99.90;;;;;;5244828;28;20043;-78
2022/04/18 00:09:56;;;;;;;0.63;0.63;;;2.80;99.90;;;;;;5248490;28;20030;-78
2022/04/18 00:12:28;;;;;;;0.40;0.40;;;2.70;99.90;;;;;;5266202;28;20020;-78
2022/04/18 00:15:08;;;;;;;0.70;0.70;;;2.70;99.90;;;;;;5249992;28;20030;-77
2022/04/18 00:17:40;;;;;;;0.45;0.45;;;2.70;99.90;;;;;;5269689;28;20027;-78
2022/04/18 00:20:11;;;;;;;1.55;1.45;;;2.60;99.90;;;;;;5270988;28;20126;-77
2022/04/18 00:22:45;;;;;;;0.50;0.50;;;2.60;99.90;;;;;;5270277;28;20032;-77
2022/04/18 00:25:16;;;;;;;0.77;0.77;;;2.60;99.90;;;;;;5251213;28;20028;-78
2022/04/18 00:27:49;;;;;;;0.40;0.40;;;2.60;99.90;;;;;;5272965;28;20032;-77
2022/04/18 00:30:20;;;;;;;1.42;1.42;;;2.60;99.90;;;;;;5252747;28;20107;-78
2022/04/18 00:32:51;;;;;;;0.68;0.68;;;2.50;99.90;;;;;;5271051;28;20034;-76
2022/04/18 00:35:26;;;;;;;0.60;0.60;;;2.50;99.90;;;;;;5271459;28;20024;-78
2022/04/18 00:38:00;;;;;;;0.55;0.55;;;2.60;99.90;;;;;;5270481;28;20030;-78
2022/04/18 00:40:31;;;;;;;0.88;0.88;;;2.70;99.90;;;;;;5239259;28;20042;-76
2022/04/18 00:43:04;;;;;;;0.60;0.60;;;2.70;99.90;;;;;;5277119;28;20024;-78
2022/04/18 00:45:37;;;;;;;0.60;0.60;;;2.70;99.90;;;;;;5276828;28;20037;-77
2022/04/18 00:48:08;;;;;;;0.60;0.60;;;2.80;99.90;;;;;;5277364;28;20180;-77
2022/04/18 00:50:47;;;;;;;0.70;0.70;;;2.80;99.90;;;;;;5275325;28;20036;-79
2022/04/18 00:53:20;;;;;;;0.73;0.73;;;2.80;99.90;;;;;;5270813;28;20539;-78
2022/04/18 00:55:55;;;;;;;0.60;0.60;;;2.70;99.90;;;;;;5251078;28;20028;-77
2022/04/18 00:58:26;;;;;;;;;;;2.70;99.90;;;;;;5273284;28;20040;-77
2022/04/18 01:00:57;;;;;;;0.63;0.63;;;2.70;99.90;;;;;;5275893;28;19903;-77
2022/04/18 01:03:30;;;;;;;0.60;0.60;;;2.70;99.90;;;;;;5275414;28;20028;-77
2022/04/18 01:06:05;;;;;;;0.40;0.40;;;2.70;99.90;;;;;;5281264;28;20249;-76
2022/04/18 01:08:36;;;;;;;;;;;2.70;99.90;;;;;;5275530;28;20019;-79
2022/04/18 01:11:10;;;;;;;0.73;0.70;;;2.80;99.90;;;;;;5269077;28;19900;-78
2022/04/18 01:13:45;;;;;;;;;;;2.70;99.90;;;;;;5269218;28;20032;-77
2022/04/18 01:16:19;;;;;;;0.60;0.60;;;2.60;99.90;;;;;;5251455;28;19900;-77
2022/04/18 01:18:55;;;;;;;;;;;2.60;99.90;;;;;;5265737;28;20032;-78
2022/04/18 01:21:29;;;;;;;1.75;1.65;;;2.50;99.90;;;;;;5264384;28;19904;-77
2022/04/18 01:28:58;;;;;;;0.63;0.63;;;2.50;99.90;;;;;;5264931;28;20034;-78
2022/04/18 01:29:48;;;;;;;0.55;0.55;;;2.40;99.90;;;;;;5269465;28;20023;-78
2022/04/18 01:32:19;;;;;;;0.60;0.60;;;2.40;99.90;;;;;;5269803;28;20022;-78
2022/04/18 01:34:50;;;;;;;0.40;0.40;;;2.30;99.90;;;;;;5251327;28;20070;-78
2022/04/18 01:37:21;;;;;;;0.73;0.73;;;2.30;99.90;;;;;;5249927;28;20032;-78
2022/04/18 01:39:56;;;;;;;0.50;0.50;;;2.30;99.90;;;;;;5268646;28;20026;-79
2022/04/18 01:42:27;;;;;;;0.68;0.68;;;2.50;99.90;;;;;;5250025;28;20028;-77
2022/04/18 01:45:00;;;;;;;0.52;0.52;;;2.90;99.90;;;;;;5268019;28;20085;-77
2022/04/18 01:47:33;;;;;;;0.40;0.40;;;3.30;99.90;;;;;;5269212;28;20031;-78
2022/04/18 01:50:05;;;;;;;0.50;0.50;;;3.60;99.90;;;;;;5254164;28;20039;-79
2022/04/18 01:52:39;;;;;;;1.20;1.20;;;3.90;99.90;;;;;;5250349;28;20275;-78
2022/04/18 01:55:11;;;;;;;0.73;0.73;;;4.10;99.90;;;;;;5270684;28;20024;-77
2022/04/18 01:57:44;;;;;;;0.80;0.80;;;4.20;99.90;;;;;;5271066;28;20034;-78
2022/04/18 02:00:18;;;;;;;0.60;0.60;;;4.30;99.90;;;;;;5267808;28;20039;-78
2022/04/18 02:02:49;;;;;;;0.80;0.80;;;4.30;99.90;;;;;;5268826;28;20024;-78
2022/04/18 02:05:26;;;;;;;0.65;0.65;;;4.30;99.90;;;;;;5255472;28;20050;-77
2022/04/18 02:07:59;;;;;;;0.55;0.55;;;4.30;99.90;;;;;;5249916;28;20032;-78
2022/04/18 02:10:34;;;;;;;0.60;0.60;;;4.30;99.90;;;;;;5267877;28;20016;-77
2022/04/18 02:13:05;;;;;;;0.82;0.82;;;4.30;99.90;;;;;;5250718;28;20036;-77
2022/04/18 02:15:36;;;;;;;1.10;1.10;;;4.30;99.90;;;;;;5267893;28;20193;-78
2022/04/18 02:18:10;;;;;;;1.17;1.17;;;4.30;99.90;;;;;;5267725;28;20024;-78
2022/04/18 02:20:44;;;;;;;0.68;0.68;;;4.30;99.90;;;;;;5267776;28;20019;-76
2022/04/18 02:23:19;;;;;;;0.60;0.60;;;4.40;99.90;;;;;;5289216;28;20043;-78
2022/04/18 02:25:50;;;;;;;0.50;0.50;;;4.30;99.90;;;;;;5282838;28;20221;-79
2022/04/18 02:28:21;;;;;;;0.38;0.38;;;4.20;99.90;;;;;;5267174;28;20028;-77
2022/04/18 02:30:53;;;;;;;0.30;0.30;;;4.10;99.90;;;;;;5250926;28;20458;-77
2022/04/18 02:33:24;;;;;;;0.60;0.60;;;3.90;99.90;;;;;;5250339;28;20035;-79
2022/04/18 02:35:55;;;;;;;0.40;0.40;;;3.70;99.90;;;;;;5267935;28;20036;-78
2022/04/18 02:38:30;;;;;;;0.35;0.35;;;3.60;99.90;;;;;;5267934;28;20031;-79
2022/04/18 02:41:01;;;;;;;0.55;0.55;;;3.50;99.90;;;;;;5250548;28;20031;-79
2022/04/18 02:43:33;;;;;;;2.50;2.30;;;3.40;99.90;;;;;;5250008;28;20032;-78
2022/04/18 02:46:04;;;;;;;0.40;0.40;;;3.40;99.90;;;;;;5268104;28;20026;-78
2022/04/18 02:48:37;;;;;;;0.70;0.70;;;3.50;99.90;;;;;;5233246;28;20044;-78
2022/04/18 02:51:13;;;;;;;0.40;0.40;;;3.60;99.90;;;;;;5268328;28;20062;-79
2022/04/18 02:53:47;;;;;;;2.83;1.00;;;3.60;99.90;;;;;;5267330;28;20020;-79
2022/04/18 02:56:18;;;;;;;0.40;0.40;;;3.80;99.90;;;;;;5267632;28;20020;-78
2022/04/18 02:58:53;;;;;;;1.20;1.20;;;3.90;99.90;;;;;;5268023;28;20036;-78
2022/04/18 03:01:25;;;;;;;0.60;0.60;;;3.90;99.90;;;;;;5226632;28;20033;-79
2022/04/18 03:03:57;;;;;;;0.40;0.40;;;3.90;99.90;;;;;;5244210;28;20344;-80
2022/04/18 03:06:31;;;;;;;0.40;0.40;;;4.00;99.90;;;;;;5242586;28;20044;-79
2022/04/18 03:09:04;;;;;;;0.40;0.40;;;4.00;99.90;;;;;;5268731;28;20055;-79
2022/04/18 03:11:51;;;;;;;0.47;0.47;;;4.00;99.90;;;;;;5268822;28;20036;-78
2022/04/18 03:14:23;;;;;;;0.30;0.30;;;3.90;99.90;;;;;;5267957;28;20459;-78
2022/04/18 03:16:54;;;;;;;0.40;0.40;;;4.00;99.90;;;;;;5267851;28;20032;-78
2022/04/18 03:19:25;;;;;;;0.63;0.63;;;4.10;99.90;;;;;;5268585;28;20024;-79
2022/04/18 03:21:59;;;;;;;0.50;0.50;;;4.10;99.90;;;;;;5267968;28;20024;-78
2022/04/18 03:24:31;;;;;;;0.57;0.57;;;4.20;99.90;;;;;;5267350;28;20028;-78
2022/04/18 03:27:04;;;;;;;0.40;0.40;;;4.20;99.90;;;;;;5268830;28;20039;-78
2022/04/18 03:29:43;;;;;;;0.85;0.85;;;4.20;99.90;;;;;;5268530;28;20404;-78
2022/04/18 03:32:18;;;;;;;0.80;0.80;;;4.40;99.90;;;;;;5267770;28;20031;-79
2022/04/18 03:34:49;;;;;;;0.60;0.60;;;4.40;99.90;;;;;;5230121;28;20032;-78
2022/04/18 03:40:13;;;;;;;0.60;0.60;;;4.30;99.90;;;;;;5262947;28;20038;-78
2022/04/18 03:42:46;;;;;;;1.20;1.20;;;4.20;99.90;;;;;;5267846;28;20032;-78
2022/04/18 03:45:21;;;;;;;0.70;0.70;;;4.00;99.90;;;;;;5268262;28;20028;-78
2022/04/18 03:47:52;;;;;;;0.68;0.68;;;3.90;99.90;;;;;;5267689;28;20027;-78
2022/04/18 03:50:28;;;;;;;0.45;0.45;;;3.60;99.90;;;;;;5269660;28;20036;-78
2022/04/18 03:52:59;;;;;;;0.52;0.52;;;3.40;99.90;;;;;;5272647;28;20436;-76
2022/04/18 03:55:31;;;;;;;1.17;1.17;;;3.20;99.90;;;;;;5272673;28;20026;-76
2022/04/18 03:58:02;;;;;;;0.40;0.40;;;3.00;99.90;;;;;;5266637;28;20031;-77
2022/04/18 04:00:35;;;;;;;0.30;0.30;;;2.70;99.90;;;;;;5284524;28;20042;-80
2022/04/18 04:03:08;;;;;;;0.60;0.60;;;2.50;99.90;;;;;;5254336;28;20019;-77
2022/04/18 04:05:45;;;;;;;3.60;2.15;;;2.40;99.90;;;;;;5260101;28;20059;-77
2022/04/18 04:08:22;;;;;;;0.55;0.55;;;2.20;99.90;;;;;;5253415;28;20038;-77
2022/04/18 04:10:58;;;;;;;0.60;0.60;;;2.10;99.90;;;;;;5237928;28;20031;-75
2022/04/18 04:13:29;;;;;;;0.50;0.50;;;2.00;99.90;;;;;;5271542;28;20032;-75
2022/04/18 04:16:00;;;;;;;0.32;0.32;;;2.00;99.90;;;;;;5271478;28;20034;-77
2022/04/18 04:18:31;;;;;;;0.50;0.50;;;2.00;99.90;;;;;;5276705;28;20028;-77
2022/04/18 04:21:05;;;;;;;0.50;0.50;;;2.00;99.90;;;;;;5278215;28;20031;-78
2022/04/18 04:23:37;;;;;;;0.40;0.40;;;2.10;99.90;;;;;;5278631;28;20032;-78
2022/04/18 04:26:08;;;;;;;0.73;0.73;;;2.00;99.90;;;;;;5235392;28;20028;-76
2022/04/18 04:28:42;;;;;;;0.40;0.40;;;2.10;99.90;;;;;;5269769;28;20020;-77
2022/04/18 04:31:14;;;;;;;0.60;0.60;;;2.10;99.90;;;;;;5273177;28;20034;-78
2022/04/18 04:33:45;;;;;;;0.50;0.50;;;2.20;99.90;;;;;;5273932;28;20174;-76
2022/04/18 04:36:18;;;;;;;0.80;0.80;;;2.30;99.90;;;;;;5243940;28;20033;-77
2022/04/18 04:38:52;;;;;;;0.70;0.70;;;2.40;99.90;;;;;;5262053;28;20030;-78
2022/04/18 04:41:27;;;;;;;0.75;0.75;;;2.70;99.90;;;;;;5272146;28;20034;-78
2022/04/18 04:43:59;;;;;;;0.70;0.70;;;2.90;99.90;;;;;;5237589;28;20043;-77
2022/04/18 04:46:33;;;;;;;0.40;0.40;;;3.40;99.90;;;;;;5271382;28;20020;-80
2022/04/18 04:49:12;;;;;;;0.50;0.50;;;4.00;99.90;;;;;;5272632;28;20045;-77
2022/04/18 04:51:45;;;;;;;0.32;0.32;;;4.60;99.90;;;;;;5276585;28;20027;-79
2022/04/18 04:54:22;;;;;;;0.68;0.68;;;5.10;99.90;;;;;;5289797;28;20201;-74
2022/04/18 04:56:53;;;;;;;0.60;0.60;;;5.40;99.90;;;;;;5271397;28;20023;-73
2022/04/18 04:59:25;;;;;;;0.70;0.70;;;5.60;99.90;;;;;;5252039;28;20063;-76
2022/04/18 05:01:56;;;;;;;0.40;0.40;;;5.80;99.90;;;;;;5256296;28;20030;-77
2022/04/18 05:04:31;;;;;;;0.50;0.50;;;6.00;99.90;;;;;;5255830;28;20085;-77
2022/04/18 05:07:03;;;;;;;0.50;0.50;;;6.10;99.90;;;;;;5269176;28;20031;-76
2022/04/18 05:09:37;;;;;;;2.15;1.23;;;6.30;99.90;;;;;;5220405;28;20032;-77
2022/04/18 05:12:09;;;;;;;0.40;0.40;;;6.40;99.90;;;;;;5254347;28;20378;-77
2022/04/18 05:14:40;;;;;;;0.80;0.80;;;6.60;99.90;;;;;;5270748;28;20024;-78
2022/04/18 05:17:15;;;;;;;0.60;0.60;;;6.70;99.90;;;;;;5254167;28;20031;-77
2022/04/18 05:19:46;;;;;;;1.13;1.13;;;6.80;99.90;;;;;;5293283;28;20038;-77
2022/04/18 05:22:20;;;;;;;0.75;0.75;;;6.80;99.90;;;;;;5275443;28;20031;-78
2022/04/18 05:24:55;;;;;;;0.60;0.60;;;6.80;99.90;;;;;;5275734;28;20027;-77
2022/04/18 05:27:29;;;;;;;0.88;0.88;;;6.80;99.90;;;;;;5247366;28;20020;-78
2022/04/18 05:30:03;;;;;;;2.42;1.63;;;6.80;99.90;;;;;;5264986;28;20336;-79
2022/04/18 05:32:34;;;;;;;0.55;0.55;;;7.00;99.90;;;;;;5270998;28;20028;-78
2022/04/18 05:35:06;;;;;;;0.65;0.65;;;7.10;99.90;;;;;;5272291;28;20024;-78
2022/04/18 05:37:41;;;;;;;0.50;0.50;;;6.90;99.90;;;;;;5270667;28;20327;-78
2022/04/18 05:40:17;;;;;;;0.50;0.50;;;6.90;99.90;;;;;;5272319;28;20040;-78
2022/04/18 05:42:52;;;;;;;1.02;0.90;;;6.80;99.90;;;;;;5271190;28;20027;-77
2022/04/18 05:45:23;;;;;;;;;;;6.80;99.90;;;;;;5253323;28;20046;-78
2022/04/18 05:47:54;;;;;;;0.98;0.98;;;6.80;99.90;;;;;;5271536;28;19967;-78
2022/04/18 05:50:26;;;;;;;0.80;0.80;;;6.80;99.90;;;;;;5252712;28;20046;-77
2022/04/18 05:52:58;;;;;;;1.25;1.25;;;6.90;99.90;;;;;;5270592;28;20357;-77
2022/04/18 05:55:35;;;;;;;0.73;0.73;;;7.00;99.90;;;;;;5269742;28;20028;-77
2022/04/18 05:58:07;;;;;;;0.80;0.80;;;7.00;99.90;;;;;;5266490;28;20218;-77
2022/04/18 06:00:41;;;;;;;0.50;0.50;;;7.00;99.90;;;;;;5268222;28;20316;-78
2022/04/18 06:03:12;;;;;;;0.80;0.80;;;7.00;99.90;;;;;;5276673;28;20175;-78
2022/04/18 06:05:44;;;;;;;0.40;0.40;;;7.10;99.90;;;;;;5277607;28;20047;-77
2022/04/18 06:08:18;;;;;;;0.63;0.63;;;7.20;99.90;;;;;;5271346;28;20391;-78
2022/04/18 06:10:49;;;;;;;1.20;1.20;;;7.20;99.90;;;;;;5289198;28;20054;-77
2022/04/18 06:13:26;;;;;;;0.60;0.60;;;7.30;99.90;;;;;;5269238;28;20034;-78
2022/04/18 06:16:03;;;;;;;2.05;1.83;;;7.40;99.90;;;;;;5287104;28;20027;-77
2022/04/18 06:18:37;;;;;;;0.70;0.70;;;7.30;99.90;;;;;;5288837;28;20031;-79
2022/04/18 06:21:08;;;;;;;0.90;0.90;;;7.30;99.90;;;;;;5288391;28;20049;-78
2022/04/18 06:23:40;;;;;;;0.73;0.73;;;7.30;99.90;;;;;;5275603;28;20034;-78
2022/04/18 06:26:11;;;;;;;1.02;1.02;;;7.20;99.90;;;;;;5266373;28;20030;-77
2022/04/18 06:28:43;;;;;;;0.77;0.77;;;7.30;99.90;;;;;;5267141;28;20040;-78
2022/04/18 06:31:15;;;;;;;1.13;1.13;;;7.30;99.90;;;;;;5267310;28;20032;-76
2022/04/18 06:33:46;;;;;;;0.68;0.68;;;7.30;99.90;;;;;;5267200;28;20030;-78
2022/04/18 06:36:20;;;;;;;1.52;1.45;;;7.30;99.90;;;;;;5248009;28;20027;-77
2022/04/18 06:38:58;;;;;;;0.75;0.75;;;7.40;99.90;;;;;;5267452;28;20066;-78
2022/04/18 06:41:34;;;;;;;0.68;0.68;;;7.50;99.90;;;;;;5279145;28;20034;-77
2022/04/18 06:44:11;;;;;;;0.50;0.50;;;7.60;99.90;;;;;;5280109;28;20484;-77
2022/04/18 06:46:43;;;;;;;1.20;1.20;;;7.70;99.90;;;;;;5265821;28;20450;-77
2022/04/18 06:49:14;;;;;;;0.65;0.65;;;7.70;99.90;;;;;;5261787;28;20301;-77
2022/04/18 06:51:46;;;;;;;0.70;0.70;;;7.80;99.90;;;;;;5269409;28;20034;-76
2022/04/18 06:54:20;;;;;;;0.60;0.60;;;7.70;99.90;;;;;;5264874;28;20028;-77
2022/04/18 06:57:03;;;;;;;;;;;7.70;99.90;;;;;;5248499;28;20036;-77
2022/04/18 06:59:34;;;;;;;0.80;0.80;;;7.70;99.90;;;;;;5281944;28;19918;-77
2022/04/18 07:02:07;;;;;;;0.40;0.40;;;7.70;99.90;;;;;;5247811;28;20036;-78
2022/04/18 07:04:38;;;;;;;0.40;0.40;;;7.70;99.90;;;;;;5256513;28;20044;-77
2022/04/18 07:07:10;;;;;;;0.52;0.52;;;7.60;99.90;;;;;;5266561;28;20035;-77
2022/04/18 07:09:44;;;;;;;0.60;0.60;;;7.70;99.90;;;;;;5243653;28;20379;-76
2022/04/18 07:12:21;;;;;;;0.80;0.80;;;7.60;99.90;;;;;;5227344;28;20047;-78
2022/04/18 07:14:54;;;;;;;0.90;0.90;;;7.60;99.90;;;;;;5245083;28;20084;-77
2022/04/18 07:17:30;;;;;;;0.65;0.65;;;7.50;99.90;;;;;;5245816;28;20032;-78
2022/04/18 07:20:10;;;;;;;0.73;0.73;;;7.40;99.90;;;;;;5247633;28;20036;-78
2022/04/18 07:22:47;;;;;;;0.70;0.70;;;7.30;99.90;;;;;;5265578;28;20026;-79
2022/04/18 07:25:18;;;;;;;0.70;0.70;;;7.40;99.90;;;;;;5247257;28;20225;-77
2022/04/18 07:27:49;;;;;;;1.48;1.38;;;7.50;99.90;;;;;;5249882;28;20028;-78
2022/04/18 07:30:30;;;;;;;1.55;1.45;;;7.60;99.90;;;;;;5249451;28;20024;-77
2022/04/18 07:33:02;;;;;;;0.90;0.90;;;7.70;99.90;;;;;;5232357;28;20021;-77
2022/04/18 07:35:35;;;;;;;0.80;0.80;;;7.70;99.90;;;;;;5231332;28;20531;-77
2022/04/18 07:41:04;;;;;;;0.60;0.60;;;7.50;99.90;;;;;;5270617;28;20225;-78
2022/04/18 07:43:35;;;;;;;0.80;0.80;;;7.60;99.90;;;;;;5269505;28;20034;-78
2022/04/18 07:46:09;;;;;;;0.88;0.88;;;7.70;99.90;;;;;;5270342;28;20564;-78
2022/04/18 07:48:42;;;;;;;1.33;1.33;;;7.80;99.90;;;;;;5270111;28;20031;-78
2022/04/18 07:51:35;;;;;;;0.70;0.70;;;7.80;99.90;;;;;;5268385;28;20038;-78
2022/04/18 07:54:08;;;;;;;0.73;0.73;;;7.80;99.90;;;;;;5254925;28;20507;-77
2022/04/18 07:56:40;;;;;;;0.95;0.95;;;7.90;99.90;;;;;;5271200;28;20034;-78
2022/04/18 07:59:12;;;;;;;1.95;1.85;;;8.00;99.90;;;;;;5254233;28;20040;-76
2022/04/18 08:01:44;;;;;;;0.40;0.40;;;8.00;99.90;;;;;;5274220;28;20023;-77
2022/04/18 08:04:26;;;;;;;0.80;0.80;;;7.90;99.90;;;;;;5271497;28;20027;-77
2022/04/18 08:06:59;;;;;;;0.80;0.80;;;7.90;99.90;;;;;;5241371;28;20217;-77
2022/04/18 08:09:33;;;;;;;0.75;0.75;;;7.80;99.90;;;;;;5272112;28;20028;-77
2022/04/18 08:12:11;;;;;;;1.08;1.08;;;7.70;99.90;;;;;;5270614;28;20046;-78
2022/04/18 08:14:43;;;;;;;0.80;0.80;;;7.60;99.90;;;;;;5270515;28;20023;-78
2022/04/18 08:17:19;;;;;;;0.75;0.75;;;7.60;99.90;;;;;;5268693;28;20024;-77
2022/04/18 08:19:55;;;;;;;0.60;0.60;;;7.50;99.90;;;;;;5252082;28;20012;-78
2022/04/18 08:22:27;;;;;;;0.60;0.60;;;7.40;99.90;;;;;;5274066;28;20331;-78
2022/04/18 08:25:01;;;;;;;0.60;0.60;;;7.30;99.90;;;;;;5291152;28;20216;-78
2022/04/18 08:27:32;;;;;;;0.90;0.90;;;7.30;99.90;;;;;;5270708;28;20019;-77
2022/04/18 08:30:05;;;;;;;0.55;0.55;;;7.30;99.90;;;;;;5270703;28;20028;-75
2022/04/18 08:32:38;;;;;;;0.80;0.80;;;7.40;99.90;;;;;;5270476;28;20022;-77
2022/04/18 08:35:13;;;;;;;0.70;0.70;;;7.40;99.90;;;;;;5269950;28;20035;-76
2022/04/18 08:37:44;;;;;;;1.02;1.02;;;7.40;99.90;;;;;;5267640;28;20032;-78
2022/04/18 08:40:21;;;;;;;1.02;1.02;;;7.40;99.90;;;;;;5264375;28;20016;-77
2022/04/18 08:42:56;;;;;;;0.68;0.68;;;7.40;99.90;;;;;;5265886;28;20027;-77
2022/04/18 08:45:29;;;;;;;1.00;1.00;;;7.30;99.90;;;;;;5243949;28;20033;-78
2022/04/18 08:53:49;;;;;;;0.60;0.60;;;7.20;99.90;;;;;;5269972;28;20032;-78
2022/04/18 08:56:20;;;;;;;0.73;0.73;;;7.10;99.90;;;;;;5251051;28;20408;-77
2022/04/18 08:58:54;;;;;;;0.80;0.80;;;7.00;99.90;;;;;;5265981;28;20042;-78
2022/04/18 09:01:28;;;;;;;0.60;0.60;;;7.00;99.90;;;;;;5271612;28;20020;-79
2022/04/18 09:03:59;;;;;;;1.03;1.00;;;7.00;99.90;;;;;;5269840;28;20028;-78
2022/04/18 09:06:37;;;;;;;1.13;1.13;;;6.90;99.90;;;;;;5257201;28;20292;-77
2022/04/18 09:09:11;;;;;;;0.85;0.85;;;7.00;99.90;;;;;;5253479;28;20034;-78
2022/04/18 09:11:45;;;;;;;0.70;0.70;;;7.00;99.90;;;;;;5270223;28;20028;-77
2022/04/18 09:14:17;;;;;;;0.63;0.63;;;7.10;99.90;;;;;;5269971;28;20360;-78
2022/04/18 09:16:48;;;;;;;1.10;1.10;;;7.10;99.90;;;;;;5269784;28;20012;-78
2022/04/18 09:19:22;;;;;;;0.82;0.82;;;7.10;99.90;;;;;;5275099;28;20334;-76
2022/04/18 09:22:01;;;;;;;0.50;0.50;;;7.10;99.90;;;;;;5271799;28;20024;-78
2022/04/18 09:24:35;;;;;;;1.02;1.02;;;7.00;99.90;;;;;;5252549;28;20024;-78
2022/04/18 09:27:29;;;;;;;0.75;0.75;;;7.00;99.90;;;;;;5251849;28;20028;-78
2022/04/18 09:30:09;;;;;;;0.82;0.82;;;6.90;99.90;;;;;;5253333;28;20050;-78
2022/04/18 09:33:05;;;;;;;0.50;0.50;;;6.70;99.90;;;;;;5268542;28;20023;-78
2022/04/18 09:35:41;;;;;;;0.40;0.40;;;6.60;99.90;;;;;;5269633;28;20030;-78
2022/04/18 09:38:20;;;;;;;0.60;0.60;;;6.40;99.90;;;;;;5270169;28;20027;-78
2022/04/18 09:40:54;;;;;;;0.55;0.55;;;6.20;99.90;;;;;;5270825;28;20035;-79
2022/04/18 09:43:40;;;;;;;0.40;0.40;;;6.10;99.90;;;;;;5270637;28;20031;-78
2022/04/18 09:46:12;;;;;;;0.60;0.60;;;5.90;99.90;;;;;;5268741;28;20024;-79
2022/04/18 09:48:55;;;;;;;0.40;0.40;;;5.80;99.90;;;;;;5238001;28;20277;-79
2022/04/18 09:51:29;;;;;;;1.17;1.17;;;5.80;99.90;;;;;;5238489;28;20032;-79
2022/04/18 09:54:00;;;;;;;0.70;0.70;;;5.80;99.90;;;;;;5269447;28;20046;-78
2022/04/18 09:56:34;;;;;;;0.50;0.50;;;5.80;99.90;;;;;;5268898;28;20030;-78
2022/04/18 09:59:12;;;;;;;0.57;0.57;;;5.80;99.90;;;;;;5249497;28;20040;-77
2022/04/18 10:01:47;;;;;;;0.40;0.40;;;5.90;99.90;;;;;;5267962;28;20024;-78
2022/04/18 10:04:19;;;;;;;0.98;0.98;;;5.90;99.90;;;;;;5238717;28;20044;-78
2022/04/18 10:06:53;;;;;;;1.58;1.33;;;6.00;99.90;;;;;;5249707;28;20114;-79
2022/04/18 10:09:31;;;;;;;0.60;0.60;;;6.10;99.90;;;;;;5270118;28;20042;-78
2022/04/18 10:12:10;;;;;;;0.80;0.80;;;6.30;99.90;;;;;;5265809;28;20366;-78
2022/04/18 10:14:42;;;;;;;0.68;0.68;;;6.50;99.90;;;;;;5248469;28;20047;-79
2022/04/18 10:17:19;;;;;;;0.43;0.43;;;6.80;99.90;;;;;;5266252;28;20032;-78
2022/04/18 10:20:16;;;;;;;0.57;0.57;;;6.90;99.90;;;;;;5266712;28;20023;-77
2022/04/18 10:23:14;;;;;;;0.75;0.75;;;7.20;99.90;;;;;;5231916;28;20598;-77
2022/04/18 10:26:20;;;;;;;0.63;0.63;;;7.60;99.90;;;;;;5244315;28;20028;-78
2022/04/18 10:29:00;;;;;;;0.40;0.40;;;7.70;99.90;;;;;;5236295;28;20015;-77
2022/04/18 10:31:40;;;;;;;0.73;0.73;;;7.90;99.90;;;;;;5266083;28;20024;-78
2022/04/18 10:34:16;;;;;;;0.50;0.50;;;8.00;99.90;;;;;;5265768;28;20020;-77
2022/04/18 10:36:51;;;;;;;1.10;1.10;;;8.30;99.90;;;;;;5266095;28;20038;-78
2022/04/18 10:39:38;;;;;;;0.60;0.60;;;8.70;99.90;;;;;;5265900;28;20028;-78
2022/04/18 10:42:22;;;;;;;1.13;1.13;;;8.40;99.90;;;;;;5265961;28;20028;-77
2022/04/18 10:45:06;;;;;;;;;;;8.30;99.90;;;;;;5246993;28;20058;-78
2022/04/18 10:47:59;;;;;;;0.98;0.98;;;8.20;99.90;;;;;;5232309;28;19904;-76
2022/04/18 10:50:36;;;;;;;0.47;0.47;;;8.00;99.90;;;;;;5248401;28;20046;-76
2022/04/18 10:53:14;;;;;;;0.63;0.63;;;7.70;99.90;;;;;;5278520;28;20022;-79
2022/04/18 10:55:52;;;;;;;0.70;0.70;;;7.60;99.90;;;;;;5287173;28;20468;-77
2022/04/18 10:58:35;;;;;;;0.88;0.88;;;7.50;99.90;;;;;;5250765;28;20047;-77
2022/04/18 11:01:08;;;;;;;0.85;0.85;;;7.50;99.90;;;;;;5247462;28;20040;-79
2022/04/18 11:03:49;;;;;;;0.77;0.77;;;7.40;99.90;;;;;;5264586;28;20026;-78
2022/04/18 11:06:23;;;;;;;0.63;0.63;;;7.30;99.90;;;;;;5233556;28;20049;-77
2022/04/18 11:09:19;;;;;;;0.65;0.65;;;7.60;99.90;;;;;;5229956;28;20036;-78
2022/04/18 11:11:55;;;;;;;0.63;0.63;;;7.50;99.90;;;;;;5245808;28;20022;-77
2022/04/18 11:14:47;;;;;;;0.65;0.65;;;7.80;99.90;;;;;;5245732;28;20023;-78
2022/04/18 11:17:28;;;;;;;1.08;1.08;;;7.80;99.90;;;;;;5263648;28;20023;-79
2022/04/18 11:20:25;;;;;;;0.70;0.70;;;7.80;99.90;;;;;;5264758;28;20024;-79
2022/04/18 11:23:21;;;;;;;0.73;0.73;;;7.90;99.90;;;;;;5237655;28;20033;-77
2022/04/18 11:25:58;;;;;;;1.50;1.50;;;8.50;99.90;;;;;;5255752;28;20016;-78
2022/04/18 11:28:35;;;;;;;0.80;0.80;;;8.80;99.90;;;;;;5269443;28;20860;-78
2022/04/18 11:31:21;;;;;;;0.70;0.70;;;9.60;99.90;;;;;;5249541;28;20364;-77
2022/04/18 11:34:04;;;;;;;0.60;0.60;;;9.70;99.90;;;;;;5269225;28;20031;-77
2022/04/18 11:36:36;;;;;;;1.08;1.08;;;9.80;99.90;;;;;;5290254;28;20391;-78
2022/04/18 11:39:10;;;;;;;0.80;0.80;;;10.00;99.90;;;;;;5288035;28;20027;-78
2022/04/18 11:41:47;;;;;;;0.70;0.70;;;10.20;99.90;;;;;;5260811;28;20024;-77
2022/04/18 11:44:25;;;;;;;0.80;0.80;;;10.40;99.90;;;;;;5265070;28;20028;-78
2022/04/18 11:47:06;;;;;;;0.65;0.65;;;10.10;99.90;;;;;;5247038;28;20021;-77
2022/04/18 11:49:39;;;;;;;0.75;0.75;;;10.40;99.90;;;;;;5228303;28;20043;-76
2022/04/18 11:52:40;;;;;;;1.13;1.13;;;11.30;99.90;;;;;;5244751;28;20040;-76
2022/04/18 11:55:15;;;;;;;1.00;1.00;;;11.20;99.90;;;;;;5243887;28;20509;-76
2022/04/18 11:57:48;;;;;;;0.77;0.77;;;10.90;99.90;;;;;;5265670;28;20020;-78
2022/04/18 12:08:55;;;;;;;0.90;0.90;;;12.00;99.90;;;;;;5262482;28;20453;-78
2022/04/18 12:11:38;;;;;;;1.00;1.00;;;12.50;99.90;;;;;;5263288;28;20618;-76
2022/04/18 12:14:10;;;;;;;1.13;1.10;;;13.50;99.90;;;;;;5268693;28;20310;-77
2022/04/18 12:16:44;;;;;;;1.75;1.65;;;12.60;99.90;;;;;;5245775;28;20032;-76
2022/04/18 12:19:16;;;;;;;0.70;0.70;;;12.80;99.90;;;;;;5248270;28;20032;-76
2022/04/18 12:21:54;;;;;;;0.68;0.68;;;13.60;99.90;;;;;;5252056;28;20030;-76
2022/04/18 12:24:42;;;;;;;0.75;0.75;;;14.10;99.90;;;;;;5270085;28;20024;-78
2022/04/18 12:27:17;;;;;;;0.80;0.80;;;14.30;99.90;;;;;;5270069;28;20012;-77
2022/04/18 12:29:49;;;;;;;0.70;0.70;;;14.20;99.90;;;;;;5251323;28;20063;-76
2022/04/18 12:32:29;;;;;;;0.88;0.88;;;13.70;99.90;;;;;;5270542;28;20024;-78
2022/04/18 12:35:01;;;;;;;0.50;0.50;;;14.30;99.90;;;;;;5270115;28;20016;-78
2022/04/18 12:37:33;;;;;;;0.70;0.70;;;14.80;99.90;;;;;;5252057;28;20020;-76
2022/04/18 12:40:22;;;;;;;1.98;1.88;;;14.80;99.90;;;;;;5266455;28;20033;-78
2022/04/18 12:42:56;;;;;;;1.00;1.00;;;14.50;99.90;;;;;;5259823;28;20040;-79
2022/04/18 12:45:39;;;;;;;;;;;14.40;99.90;;;;;;5244216;28;20496;-77
2022/04/18 12:48:11;;;;;;;0.65;0.65;;;14.90;99.90;;;;;;5249647;28;19915;-76
2022/04/18 12:50:44;;;;;;;0.60;0.60;;;15.50;99.90;;;;;;5250763;28;20036;-77
2022/04/18 12:53:15;;;;;;;0.60;0.60;;;15.40;99.90;;;;;;5252351;28;20058;-78
2022/04/18 12:56:10;;;;;;;0.82;0.82;;;15.90;99.90;;;;;;5272046;28;20225;-78
2022/04/18 12:58:43;;;;;;;0.60;0.60;;;15.10;99.90;;;;;;5251019;28;20213;-78
2022/04/18 13:01:28;;;;;;;0.65;0.65;;;15.90;99.90;;;;;;5269396;28;20716;-78
2022/04/18 13:04:05;;;;;;;0.50;0.50;;;15.90;99.90;;;;;;5261411;28;20016;-76
2022/04/18 13:06:36;;;;;;;0.60;0.60;;;16.40;99.90;;;;;;5236813;28;20322;-78
2022/04/18 13:09:10;;;;;;;0.70;0.70;;;15.00;99.90;;;;;;5264997;28;20034;-77
2022/04/18 13:11:44;;;;;;;0.88;0.88;;;13.90;99.90;;;;;;5269170;28;20342;-76
2022/04/18 13:14:15;;;;;;;0.73;0.73;;;13.20;99.90;;;;;;5268531;28;20041;-77
2022/04/18 13:16:47;;;;;;;0.52;0.52;;;14.50;99.90;;;;;;5268236;28;20028;-77
2022/04/18 13:19:22;;;;;;;0.90;0.90;;;16.50;99.90;;;;;;5269448;28;20020;-76
2022/04/18 13:21:56;;;;;;;0.75;0.75;;;17.30;99.90;;;;;;5268493;28;20378;-76
2022/04/18 13:24:27;;;;;;;0.75;0.75;;;16.70;99.90;;;;;;5270259;28;20027;-77
2022/04/18 13:27:00;;;;;;;0.82;0.82;;;15.70;99.90;;;;;;5262294;28;20031;-77
2022/04/18 13:29:32;;;;;;;0.60;0.60;;;16.90;99.90;;;;;;5254062;28;20062;-78
2022/04/18 13:32:04;;;;;;;0.50;0.50;;;16.80;99.90;;;;;;5271421;28;20292;-76
2022/04/18 13:34:36;;;;;;;0.70;0.70;;;16.60;99.90;;;;;;5249602;28;20091;-77
2022/04/18 13:37:11;;;;;;;1.27;1.27;;;16.50;99.90;;;;;;5249554;28;20038;-76
2022/04/18 13:39:47;;;;;;;0.75;0.75;;;16.30;99.90;;;;;;5249731;28;20028;-78
2022/04/18 13:42:18;;;;;;;1.23;1.17;;;15.80;99.90;;;;;;5249794;28;20254;-76
2022/04/18 13:44:50;;;;;;;0.70;0.70;;;14.50;99.90;;;;;;5265436;28;20561;-76
2022/04/18 13:47:24;;;;;;;0.80;0.80;;;14.20;99.90;;;;;;5230179;28;20028;-77
2022/04/18 13:49:59;;;;;;;0.87;0.87;;;14.20;99.90;;;;;;5229203;28;20040;-78
2022/04/18 13:52:31;;;;;;;1.10;1.10;;;14.20;99.90;;;;;;5230446;28;20034;-78
2022/04/18 13:55:13;;;;;;;0.60;0.60;;;13.60;99.90;;;;;;5215637;28;20028;-76
2022/04/18 13:57:45;;;;;;;0.80;0.80;;;13.90;99.90;;;;;;5237963;28;20450;-77
2022/04/18 14:00:20;;;;;;;0.60;0.60;;;14.60;99.90;;;;;;5261585;28;20035;-76
2022/04/18 14:02:53;;;;;;;0.65;0.65;;;15.80;99.90;;;;;;5250062;28;20431;-76